Time;durP1;ratioP1;P1;durP2;ratioP2;P2;SDS_P1;SDS_P2;PMS_P1;PMS_P2;Temp;Humidity;BMP_temperature;BMP_pressure;BME280_temperature;BME280_humidity;BME280_pressure;Samples;Min_cycle;Max_cycle;Signal;HPM_P1;HPM_P2
2024/02/17 00:02:03;;;;;;;14.88;4.00;;;;;;;;;;5008161;28;20032;-78
2024/02/17 00:04:33;;;;;;;13.93;3.65;;;;;;;;;;5021617;28;20036;-78
2024/02/17 00:07:00;;;;;;;15.43;3.78;;;;;;;;;;5021235;28;20037;-78
2024/02/17 00:09:26;;;;;;;;;;;;;;;;;;4990477;28;20599;-78
2024/02/17 00:11:53;;;;;;;17.17;4.00;;;;;;;;;;5024300;28;19917;-79
2024/02/17 00:14:20;;;;;;;16.35;3.67;;;;;;;;;;5021594;28;20142;-79
2024/02/17 00:16:47;;;;;;;15.50;3.50;;;;;;;;;;5017346;28;20026;-80
2024/02/17 00:19:13;;;;;;;13.13;3.72;;;;;;;;;;5010291;28;20037;-78
2024/02/17 00:21:39;;;;;;;16.88;4.10;;;;;;;;;;5006347;28;20072;-79
2024/02/17 00:24:11;;;;;;;14.55;3.97;;;;;;;;;;5007458;28;20433;-80
2024/02/17 00:26:42;;;;;;;13.02;3.28;;;;;;;;;;5022542;28;20040;-79
2024/02/17 00:29:13;;;;;;;13.50;3.33;;;;;;;;;;5026112;28;20021;-80
2024/02/17 00:31:39;;;;;;;13.18;3.33;;;;;;;;;;5013408;28;20044;-79
2024/02/17 00:34:12;;;;;;;13.65;3.10;;;;;;;;;;5006478;28;20573;-79
2024/02/17 00:36:38;;;;;;;13.32;3.70;;;;;;;;;;5013729;28;20033;-79
2024/02/17 00:39:04;;;;;;;17.83;4.03;;;;;;;;;;5004741;28;20037;-79
2024/02/17 00:41:31;;;;;;;14.13;3.78;;;;;;;;;;5021501;28;20055;-79
2024/02/17 00:43:58;;;;;;;15.48;3.97;;;;;;;;;;5002916;28;20029;-79
2024/02/17 00:46:23;;;;;;;;;;;;;;;;;;5008667;28;20031;-78
2024/02/17 00:48:50;;;;;;;15.48;3.70;;;;;;;;;;5006336;28;19913;-79
2024/02/17 00:51:16;;;;;;;;;;;;;;;;;;5008258;28;20114;-79
2024/02/17 00:53:42;;;;;;;16.38;4.82;;;;;;;;;;5003302;28;19921;-79
2024/02/17 00:56:09;;;;;;;14.23;3.05;;;;;;;;;;5000912;28;20061;-78
2024/02/17 00:58:35;;;;;;;12.40;2.60;;;;;;;;;;5004899;28;20040;-78
2024/02/17 01:01:03;;;;;;;15.50;3.38;;;;;;;;;;5022589;28;20041;-78
2024/02/17 01:03:29;;;;;;;15.18;4.15;;;;;;;;;;5022413;28;20029;-77
2024/02/17 01:05:56;;;;;;;;;;;;;;;;;;5017881;28;20043;-77
2024/02/17 01:08:24;;;;;;;14.98;3.60;;;;;;;;;;5003151;28;19921;-77
2024/02/17 01:10:50;;;;;;;13.13;3.17;;;;;;;;;;5003682;28;20697;-77
2024/02/17 01:13:16;;;;;;;14.23;3.10;;;;;;;;;;5023789;28;20040;-79
2024/02/17 01:15:42;;;;;;;11.95;3.10;;;;;;;;;;5019908;28;20048;-79
2024/02/17 01:18:09;;;;;;;14.32;3.40;;;;;;;;;;5004226;28;20032;-79
2024/02/17 01:20:35;;;;;;;12.35;2.65;;;;;;;;;;5000103;28;20519;-77
2024/02/17 01:23:01;;;;;;;12.90;3.25;;;;;;;;;;5007486;28;20061;-77
2024/02/17 01:25:27;;;;;;;13.55;3.03;;;;;;;;;;5009414;28;20135;-77
2024/02/17 01:27:53;;;;;;;11.43;2.40;;;;;;;;;;5017488;28;20738;-76
2024/02/17 01:30:21;;;;;;;12.32;2.60;;;;;;;;;;5020290;28;20160;-79
2024/02/17 01:32:47;;;;;;;9.23;1.90;;;;;;;;;;5020703;28;20822;-78
2024/02/17 01:35:13;;;;;;;;;;;;;;;;;;5024927;28;20104;-78
2024/02/17 01:37:40;;;;;;;9.77;2.50;;;;;;;;;;5018677;28;19916;-78
2024/02/17 01:40:06;;;;;;;8.73;2.30;;;;;;;;;;4993188;28;20040;-78
2024/02/17 01:42:32;;;;;;;9.35;2.40;;;;;;;;;;5003772;28;20037;-78
2024/02/17 01:44:58;;;;;;;;;;;;;;;;;;5010095;28;20017;-78
2024/02/17 01:47:24;;;;;;;7.38;1.75;;;;;;;;;;5024882;28;19924;-79
2024/02/17 01:49:51;;;;;;;10.20;2.20;;;;;;;;;;5009308;28;20063;-79
2024/02/17 01:52:19;;;;;;;12.25;2.05;;;;;;;;;;4991927;28;20037;-79
2024/02/17 01:54:47;;;;;;;10.15;2.00;;;;;;;;;;5008295;28;20040;-79
2024/02/17 01:57:13;;;;;;;8.88;2.28;;;;;;;;;;5020180;28;20091;-79
2024/02/17 01:59:41;;;;;;;8.77;2.03;;;;;;;;;;5007690;28;20041;-79
2024/02/17 02:02:08;;;;;;;10.98;2.70;;;;;;;;;;5009775;28;20025;-78
2024/02/17 02:04:34;;;;;;;11.77;4.00;;;;;;;;;;5006387;28;20137;-79
2024/02/17 02:07:02;;;;;;;8.93;2.15;;;;;;;;;;5008483;28;20025;-79
2024/02/17 02:09:28;;;;;;;12.18;4.45;;;;;;;;;;5019978;28;20030;-79
2024/02/17 02:11:56;;;;;;;18.30;8.80;;;;;;;;;;5007383;28;20127;-78
2024/02/17 02:14:23;;;;;;;10.77;3.15;;;;;;;;;;5010283;28;20051;-79
2024/02/17 02:16:50;;;;;;;7.90;1.90;;;;;;;;;;5004394;28;20098;-79
2024/02/17 02:19:16;;;;;;;8.05;1.67;;;;;;;;;;4991033;28;20056;-79
2024/02/17 02:21:47;;;;;;;8.50;1.73;;;;;;;;;;5003313;28;20037;-79
2024/02/17 02:24:13;;;;;;;6.82;1.73;;;;;;;;;;4999928;28;20041;-78
2024/02/17 02:26:39;;;;;;;;;;;;;;;;;;5004708;28;20108;-78
2024/02/17 02:29:05;;;;;;;7.80;1.77;;;;;;;;;;5005076;28;19919;-79
2024/02/17 02:31:33;;;;;;;9.00;1.77;;;;;;;;;;5020256;28;20032;-79
2024/02/17 02:33:59;;;;;;;8.77;1.70;;;;;;;;;;5005454;28;20068;-80
2024/02/17 02:36:26;;;;;;;6.15;1.48;;;;;;;;;;5012674;28;20285;-80
2024/02/17 02:38:53;;;;;;;9.15;1.50;;;;;;;;;;5015091;28;20058;-79
2024/02/17 02:41:19;;;;;;;8.85;1.58;;;;;;;;;;5011789;28;20928;-80
2024/02/17 02:43:45;;;;;;;10.05;1.55;;;;;;;;;;5012921;28;20137;-79
2024/02/17 02:46:11;;;;;;;6.85;1.38;;;;;;;;;;5003403;28;20505;-80
2024/02/17 02:48:38;;;;;;;7.80;1.52;;;;;;;;;;5009553;28;20033;-79
2024/02/17 02:51:05;;;;;;;8.48;1.50;;;;;;;;;;5013019;28;20087;-79
2024/02/17 02:53:31;;;;;;;6.68;1.30;;;;;;;;;;5008506;28;20037;-79
2024/02/17 02:55:57;;;;;;;;;;;;;;;;;;5009902;28;20036;-80
2024/02/17 02:58:23;;;;;;;6.05;1.50;;;;;;;;;;5009742;28;19992;-80
2024/02/17 03:00:50;;;;;;;7.70;1.40;;;;;;;;;;5005223;28;20033;-80
2024/02/17 03:03:16;;;;;;;5.57;1.10;;;;;;;;;;5003075;28;20112;-80
2024/02/17 03:05:42;;;;;;;6.50;1.50;;;;;;;;;;4999692;28;20033;-79
2024/02/17 03:08:08;;;;;;;6.72;1.50;;;;;;;;;;5007802;28;20661;-79
2024/02/17 03:10:34;;;;;;;8.65;1.70;;;;;;;;;;5004023;28;20112;-80
2024/02/17 03:13:01;;;;;;;6.63;1.58;;;;;;;;;;4999779;28;20029;-79
2024/02/17 03:15:27;;;;;;;;;;;;;;;;;;4996821;28;20208;-79
2024/02/17 03:17:56;;;;;;;5.85;1.40;;;;;;;;;;5003919;28;20665;-79
2024/02/17 03:20:23;;;;;;;7.25;1.60;;;;;;;;;;5007053;28;20037;-79
2024/02/17 03:22:49;;;;;;;7.65;1.40;;;;;;;;;;4998717;28;20026;-79
2024/02/17 03:25:15;;;;;;;;;;;;;;;;;;5007989;28;20037;-79
2024/02/17 03:27:42;;;;;;;8.23;1.70;;;;;;;;;;5000309;28;19913;-79
2024/02/17 03:30:10;;;;;;;5.55;1.42;;;;;;;;;;4999520;28;20022;-79
2024/02/17 03:32:36;;;;;;;7.20;1.40;;;;;;;;;;5003258;28;20595;-79
2024/02/17 03:35:06;;;;;;;7.28;1.60;;;;;;;;;;5007647;28;20716;-79
2024/02/17 03:37:34;;;;;;;5.72;1.38;;;;;;;;;;4997911;28;20744;-79
2024/02/17 03:40:08;;;;;;;7.93;1.63;;;;;;;;;;5003670;28;20025;-79
2024/02/17 03:42:36;;;;;;;7.10;1.33;;;;;;;;;;5017832;28;20782;-79
2024/02/17 03:45:02;;;;;;;6.93;1.67;;;;;;;;;;5008031;28;20029;-79
2024/02/17 03:47:28;;;;;;;5.90;1.25;;;;;;;;;;5009624;28;20034;-79
2024/02/17 03:49:54;;;;;;;;;;;;;;;;;;5011375;28;20308;-79
2024/02/17 03:52:20;;;;;;;5.13;1.35;;;;;;;;;;5003045;28;20731;-79
2024/02/17 03:54:48;;;;;;;;;;;;;;;;;;4994064;28;20122;-78
2024/02/17 03:57:15;;;;;;;6.78;1.60;;;;;;;;;;5005057;28;19987;-78
2024/02/17 03:59:47;;;;;;;5.35;1.10;;;;;;;;;;5017131;28;20052;-78
2024/02/17 04:02:14;;;;;;;7.95;1.55;;;;;;;;;;5006107;28;20072;-78
2024/02/17 04:04:40;;;;;;;;;;;;;;;;;;5018615;28;20033;-78
2024/02/17 04:07:06;;;;;;;5.75;1.30;;;;;;;;;;5024120;28;19967;-78
2024/02/17 04:09:34;;;;;;;5.97;1.23;;;;;;;;;;5009412;28;20035;-76
2024/02/17 04:12:00;;;;;;;8.60;1.45;;;;;;;;;;5025550;28;20017;-77
2024/02/17 04:14:26;;;;;;;8.00;1.60;;;;;;;;;;5028932;28;20045;-77
2024/02/17 04:16:54;;;;;;;6.95;1.45;;;;;;;;;;5008623;28;20572;-77
2024/02/17 04:19:20;;;;;;;6.28;1.17;;;;;;;;;;5005108;28;20776;-77
2024/02/17 04:21:50;;;;;;;7.32;1.50;;;;;;;;;;5020356;28;20029;-77
2024/02/17 04:24:17;;;;;;;7.20;1.40;;;;;;;;;;5025152;28;20068;-77
2024/02/17 04:26:42;;;;;;;;;;;;;;;;;;5023996;28;20111;-77
2024/02/17 04:29:10;;;;;;;7.65;1.67;;;;;;;;;;5022164;28;20031;-77
2024/02/17 04:31:36;;;;;;;7.18;1.48;;;;;;;;;;5007250;28;20481;-77
2024/02/17 04:34:03;;;;;;;6.78;1.50;;;;;;;;;;5007601;28;20025;-78
2024/02/17 04:36:30;;;;;;;7.10;1.35;;;;;;;;;;5025200;28;20025;-77
2024/02/17 04:38:57;;;;;;;6.97;1.52;;;;;;;;;;5010122;28;20040;-78
2024/02/17 04:41:23;;;;;;;7.88;1.80;;;;;;;;;;5005939;28;20261;-77
2024/02/17 04:43:49;;;;;;;8.77;1.85;;;;;;;;;;5026661;28;20037;-77
2024/02/17 04:46:15;;;;;;;6.20;1.48;;;;;;;;;;5007951;28;20025;-77
2024/02/17 04:48:41;;;;;;;7.30;1.70;;;;;;;;;;5006775;28;20746;-78
2024/02/17 04:51:07;;;;;;;;;;;;;;;;;;5019860;28;20108;-79
2024/02/17 04:53:33;;;;;;;8.43;1.67;;;;;;;;;;4997331;28;20345;-78
2024/02/17 04:56:01;;;;;;;8.23;1.73;;;;;;;;;;5010945;28;20585;-78
2024/02/17 04:58:28;;;;;;;7.00;1.70;;;;;;;;;;5007091;28;20147;-77
2024/02/17 05:00:54;;;;;;;8.38;1.90;;;;;;;;;;5008330;28;20815;-77
2024/02/17 05:03:20;;;;;;;8.32;1.90;;;;;;;;;;5018387;28;20208;-77
2024/02/17 05:05:46;;;;;;;8.95;1.63;;;;;;;;;;5019547;28;20037;-77
2024/02/17 05:08:13;;;;;;;;;;;;;;;;;;5006674;28;20054;-77
2024/02/17 05:10:39;;;;;;;8.33;1.70;;;;;;;;;;5003338;28;19919;-76
2024/02/17 05:13:06;;;;;;;11.65;2.00;;;;;;;;;;5006263;28;20060;-77
2024/02/17 05:15:32;;;;;;;8.35;1.80;;;;;;;;;;5022196;28;20072;-77
2024/02/17 05:17:58;;;;;;;;;;;;;;;;;;5018855;28;20684;-77
2024/02/17 05:20:24;;;;;;;9.18;1.80;;;;;;;;;;5014088;28;19913;-77
2024/02/17 05:22:50;;;;;;;8.63;2.00;;;;;;;;;;5004145;28;20669;-79
2024/02/17 05:25:18;;;;;;;9.07;2.10;;;;;;;;;;5018312;28;20064;-76
2024/02/17 05:27:44;;;;;;;10.32;2.25;;;;;;;;;;5016591;28;20043;-77
2024/02/17 05:30:11;;;;;;;9.20;2.05;;;;;;;;;;5019483;28;20030;-76
2024/02/17 05:32:37;;;;;;;7.75;2.00;;;;;;;;;;4999074;28;20094;-77
2024/02/17 05:35:03;;;;;;;11.20;2.30;;;;;;;;;;5018357;28;20033;-77
2024/02/17 05:37:29;;;;;;;9.65;2.10;;;;;;;;;;5016910;28;20385;-79
2024/02/17 05:39:55;;;;;;;7.53;1.85;;;;;;;;;;5003009;28;20034;-77
2024/02/17 05:42:23;;;;;;;;;;;;;;;;;;5016336;28;20052;-77
2024/02/17 05:44:49;;;;;;;11.57;2.08;;;;;;;;;;5001778;28;19912;-78
2024/02/17 05:47:15;;;;;;;10.38;2.17;;;;;;;;;;5018392;28;20021;-77
2024/02/17 05:49:41;;;;;;;9.30;1.95;;;;;;;;;;4999784;28;20452;-77
2024/02/17 05:52:07;;;;;;;8.23;1.70;;;;;;;;;;5004112;28;20059;-77
2024/02/17 05:54:34;;;;;;;12.10;2.15;;;;;;;;;;5014309;28;20037;-77
2024/02/17 05:57:00;;;;;;;9.45;2.10;;;;;;;;;;4997383;28;20772;-77
2024/02/17 05:59:26;;;;;;;9.25;2.13;;;;;;;;;;5004317;28;20037;-77
2024/02/17 06:01:52;;;;;;;7.88;1.73;;;;;;;;;;4996604;28;20025;-77
2024/02/17 06:04:18;;;;;;;6.22;1.52;;;;;;;;;;5019494;28;20126;-77
2024/02/17 06:06:44;;;;;;;10.25;2.08;;;;;;;;;;5003167;28;20025;-77
2024/02/17 06:09:10;;;;;;;;;;;;;;;;;;5007620;28;20055;-77
2024/02/17 06:11:37;;;;;;;6.35;1.58;;;;;;;;;;5019541;28;19974;-77
2024/02/17 06:14:03;;;;;;;7.35;1.50;;;;;;;;;;5020008;28;20183;-76
2024/02/17 06:16:30;;;;;;;6.80;1.42;;;;;;;;;;5001063;28;20037;-81
2024/02/17 06:21:41;;;;;;;6.82;1.30;;;;;;;;;;5019931;28;20048;-80
2024/02/17 06:24:07;;;;;;;6.97;1.52;;;;;;;;;;5023376;28;20029;-80
2024/02/17 06:26:35;;;;;;;6.30;1.52;;;;;;;;;;5017178;28;20061;-79
2024/02/17 06:29:03;;;;;;;6.72;1.42;;;;;;;;;;5023284;28;20029;-82
2024/02/17 06:31:29;;;;;;;8.40;1.48;;;;;;;;;;5004718;28;20751;-80
2024/02/17 06:33:56;;;;;;;6.75;1.70;;;;;;;;;;5019576;28;20025;-77
2024/02/17 06:36:22;;;;;;;7.53;1.73;;;;;;;;;;5024637;28;20026;-77
2024/02/17 06:38:51;;;;;;;6.88;1.40;;;;;;;;;;5003901;28;20033;-77
2024/02/17 06:41:18;;;;;;;8.00;1.90;;;;;;;;;;5017328;28;20102;-77
2024/02/17 06:43:44;;;;;;;6.35;1.58;;;;;;;;;;5008576;28;20029;-79
2024/02/17 06:46:14;;;;;;;;;;;;;;;;;;5019309;28;20197;-77
2024/02/17 06:48:41;;;;;;;7.55;1.50;;;;;;;;;;5014334;28;20539;-78
2024/02/17 06:51:10;;;;;;;6.53;1.65;;;;;;;;;;5006787;28;20025;-80
2024/02/17 06:53:37;;;;;;;7.22;1.58;;;;;;;;;;5018229;28;20500;-78
2024/02/17 06:56:03;;;;;;;;;;;;;;;;;;5010463;28;20025;-79
2024/02/17 06:58:29;;;;;;;9.18;1.92;;;;;;;;;;5017149;28;19990;-78
2024/02/17 07:00:55;;;;;;;8.88;1.67;;;;;;;;;;5004822;28;20036;-79
2024/02/17 07:03:21;;;;;;;8.50;1.98;;;;;;;;;;5021869;28;20804;-77
2024/02/17 07:05:47;;;;;;;;;;;;;;;;;;5008348;28;20025;-78
2024/02/17 07:08:14;;;;;;;10.63;2.13;;;;;;;;;;5011439;28;20406;-78
2024/02/17 07:10:40;;;;;;;11.57;1.90;;;;;;;;;;5008490;28;20444;-78
2024/02/17 07:13:09;;;;;;;7.22;1.73;;;;;;;;;;5011065;28;20055;-79
2024/02/17 07:15:35;;;;;;;9.07;2.05;;;;;;;;;;5005698;28;20036;-78
2024/02/17 07:18:03;;;;;;;;;;;;;;;;;;5020696;28;20096;-79
2024/02/17 07:20:29;;;;;;;;;;;;;;;;;;5011005;28;19916;-79
2024/02/17 07:22:56;;;;;;;8.45;1.67;;;;;;;;;;5018914;28;19912;-79
2024/02/17 07:25:23;;;;;;;9.68;2.15;;;;;;;;;;5010345;28;20067;-78
2024/02/17 07:27:49;;;;;;;10.10;2.20;;;;;;;;;;5022590;28;20119;-78
2024/02/17 07:30:15;;;;;;;;;;;;;;;;;;5010309;28;20033;-78
2024/02/17 07:32:41;;;;;;;11.05;2.35;;;;;;;;;;5000563;28;19913;-78
2024/02/17 07:35:08;;;;;;;8.10;2.20;;;;;;;;;;5019027;28;20033;-76
2024/02/17 07:37:34;;;;;;;;;;;;;;;;;;5005705;28;20036;-76
2024/02/17 07:40:00;;;;;;;9.32;2.15;;;;;;;;;;5018166;28;20427;-77
2024/02/17 07:42:28;;;;;;;11.20;2.63;;;;;;;;;;5023082;28;20528;-77
2024/02/17 07:44:54;;;;;;;10.77;2.50;;;;;;;;;;5000431;28;20025;-79
2024/02/17 07:47:21;;;;;;;10.98;2.10;;;;;;;;;;5005064;28;20025;-80
2024/02/17 07:49:47;;;;;;;;;;;;;;;;;;5004849;28;20642;-77
2024/02/17 07:52:13;;;;;;;10.63;2.75;;;;;;;;;;5018266;28;19913;-78
2024/02/17 07:54:39;;;;;;;12.18;2.72;;;;;;;;;;4998308;28;20810;-78
2024/02/17 07:57:05;;;;;;;;;;;;;;;;;;5007029;28;20033;-76
2024/02/17 07:59:31;;;;;;;10.38;2.08;;;;;;;;;;5021923;28;19919;-77
2024/02/17 08:01:57;;;;;;;9.73;1.95;;;;;;;;;;5006611;28;20024;-77
2024/02/17 08:04:24;;;;;;;10.68;2.33;;;;;;;;;;5006115;28;20025;-79
2024/02/17 08:06:52;;;;;;;9.45;2.42;;;;;;;;;;5017306;28;20021;-77
2024/02/17 08:09:19;;;;;;;11.77;2.40;;;;;;;;;;5005863;28;20716;-78
2024/02/17 08:11:49;;;;;;;10.85;2.50;;;;;;;;;;5016734;28;20087;-77
2024/02/17 08:14:16;;;;;;;9.30;1.90;;;;;;;;;;5005455;28;20022;-79
2024/02/17 08:16:42;;;;;;;9.68;2.47;;;;;;;;;;5001651;28;20036;-78
2024/02/17 08:19:08;;;;;;;8.52;2.10;;;;;;;;;;4996368;28;20026;-80
2024/02/17 08:21:34;;;;;;;;;;;;;;;;;;5007202;28;20032;-78
2024/02/17 08:24:00;;;;;;;9.02;2.30;;;;;;;;;;5009240;28;19944;-81
2024/02/17 08:26:27;;;;;;;11.00;2.55;;;;;;;;;;5018331;28;20034;-80
2024/02/17 08:28:53;;;;;;;9.65;2.60;;;;;;;;;;5022964;28;20029;-81
2024/02/17 08:31:19;;;;;;;10.38;2.53;;;;;;;;;;5001177;28;20029;-81
2024/02/17 08:33:45;;;;;;;10.88;2.70;;;;;;;;;;5005683;28;20036;-78
2024/02/17 08:36:12;;;;;;;14.80;2.90;;;;;;;;;;5009118;28;20090;-80
2024/02/17 08:38:38;;;;;;;12.68;3.20;;;;;;;;;;4999814;28;20033;-79
2024/02/17 08:41:05;;;;;;;9.98;3.00;;;;;;;;;;5019601;28;20129;-79
2024/02/17 08:43:31;;;;;;;12.20;2.75;;;;;;;;;;5000823;28;20039;-80
2024/02/17 08:45:58;;;;;;;12.07;3.00;;;;;;;;;;5003968;28;20018;-81
2024/02/17 08:48:24;;;;;;;13.00;2.67;;;;;;;;;;5003352;28;20028;-79
2024/02/17 08:50:51;;;;;;;;;;;;;;;;;;5019909;28;20114;-78
2024/02/17 08:53:17;;;;;;;13.02;2.78;;;;;;;;;;5021698;28;19909;-78
2024/02/17 08:55:43;;;;;;;13.07;3.00;;;;;;;;;;5006957;28;20068;-78
2024/02/17 08:58:10;;;;;;;10.80;2.88;;;;;;;;;;5008915;28;20541;-77
2024/02/17 09:00:36;;;;;;;;;;;;;;;;;;5008924;28;20835;-79
2024/02/17 09:03:03;;;;;;;11.85;2.67;;;;;;;;;;5006446;28;19913;-78
2024/02/17 09:05:29;;;;;;;11.05;2.75;;;;;;;;;;5007399;28;20071;-79
2024/02/17 09:07:55;;;;;;;10.98;2.67;;;;;;;;;;5018562;28;20025;-79
2024/02/17 09:10:21;;;;;;;10.10;2.33;;;;;;;;;;5025750;28;20671;-79
2024/02/17 09:12:47;;;;;;;;;;;;;;;;;;5008019;28;20052;-78
2024/02/17 09:15:14;;;;;;;14.02;2.88;;;;;;;;;;5021424;28;19912;-79
2024/02/17 09:17:40;;;;;;;14.55;2.78;;;;;;;;;;5004518;28;20025;-79
2024/02/17 09:20:06;;;;;;;;;;;;;;;;;;5010807;28;20071;-79
2024/02/17 09:22:33;;;;;;;11.98;2.80;;;;;;;;;;5020250;28;19981;-78
2024/02/17 09:24:59;;;;;;;13.15;3.08;;;;;;;;;;5005941;28;20025;-80
2024/02/17 09:27:25;;;;;;;;;;;;;;;;;;5000915;28;20041;-78
2024/02/17 09:29:51;;;;;;;10.57;2.75;;;;;;;;;;5008216;28;19916;-78
2024/02/17 09:32:17;;;;;;;10.02;3.00;;;;;;;;;;5009138;28;20280;-77
2024/02/17 09:34:43;;;;;;;;;;;;;;;;;;5020392;28;20037;-78
2024/02/17 09:37:10;;;;;;;13.20;3.17;;;;;;;;;;5008107;28;20383;-79
2024/02/17 09:39:38;;;;;;;11.60;2.80;;;;;;;;;;5005109;28;20026;-78
2024/02/17 09:42:05;;;;;;;12.13;2.90;;;;;;;;;;5020332;28;20057;-79
2024/02/17 09:44:31;;;;;;;10.82;2.50;;;;;;;;;;5012942;28;20142;-79
2024/02/17 09:46:58;;;;;;;12.75;2.95;;;;;;;;;;5006103;28;20028;-79
2024/02/17 09:49:25;;;;;;;11.27;2.65;;;;;;;;;;5032328;28;20033;-79
2024/02/17 09:51:51;;;;;;;10.88;3.03;;;;;;;;;;5025914;28;20044;-78
2024/02/17 09:54:21;;;;;;;11.95;3.00;;;;;;;;;;5010571;28;20069;-78
2024/02/17 09:56:51;;;;;;;12.38;2.88;;;;;;;;;;5023962;28;20129;-80
2024/02/17 09:59:17;;;;;;;12.23;2.90;;;;;;;;;;5017131;28;20037;-78
2024/02/17 10:01:45;;;;;;;13.15;2.60;;;;;;;;;;5024677;28;20111;-77
2024/02/17 10:04:14;;;;;;;12.52;2.67;;;;;;;;;;5014460;28;20033;-79
2024/02/17 10:06:41;;;;;;;11.70;2.80;;;;;;;;;;5008423;28;20021;-79
2024/02/17 10:09:09;;;;;;;11.35;2.90;;;;;;;;;;5019054;28;20028;-79
2024/02/17 10:11:35;;;;;;;12.48;3.15;;;;;;;;;;5029124;28;20029;-81
2024/02/17 10:14:01;;;;;;;;;;;;;;;;;;5029112;28;20086;-79
2024/02/17 10:16:31;;;;;;;12.20;2.80;;;;;;;;;;5018158;28;19913;-78
2024/02/17 10:18:58;;;;;;;11.48;2.45;;;;;;;;;;5027045;28;20040;-77
2024/02/17 10:21:24;;;;;;;15.68;3.08;;;;;;;;;;5009322;28;20037;-79
2024/02/17 10:23:51;;;;;;;11.73;2.70;;;;;;;;;;5015804;28;20385;-78
2024/02/17 10:26:17;;;;;;;12.10;2.53;;;;;;;;;;5017825;28;20103;-78
2024/02/17 10:28:53;;;;;;;12.23;2.70;;;;;;;;;;5008129;28;20048;-76
2024/02/17 10:31:19;;;;;;;14.15;3.85;;;;;;;;;;5026352;28;20140;-77
2024/02/17 10:33:45;;;;;;;12.80;3.17;;;;;;;;;;5032510;28;20041;-80
2024/02/17 10:36:12;;;;;;;;;;;;;;;;;;5029716;28;20049;-78
2024/02/17 10:38:39;;;;;;;12.77;3.15;;;;;;;;;;5016451;28;19913;-79
2024/02/17 10:41:06;;;;;;;15.77;3.15;;;;;;;;;;5015170;28;20136;-78
2024/02/17 10:43:36;;;;;;;13.20;3.88;;;;;;;;;;5011752;28;20113;-80
2024/02/17 10:46:04;;;;;;;13.02;3.28;;;;;;;;;;5011300;28;20157;-80
2024/02/17 10:48:31;;;;;;;11.90;3.30;;;;;;;;;;5009317;28;20033;-82
2024/02/17 10:50:57;;;;;;;13.65;3.75;;;;;;;;;;5011620;28;20029;-81
2024/02/17 10:53:36;;;;;;;13.68;3.75;;;;;;;;;;5011897;28;20041;-81
2024/02/17 10:56:06;;;;;;;12.23;3.20;;;;;;;;;;5008675;28;20124;-80
2024/02/17 10:58:34;;;;;;;12.98;3.17;;;;;;;;;;4999764;28;20033;-80
2024/02/17 11:01:00;;;;;;;15.05;3.85;;;;;;;;;;5007125;28;20068;-79
2024/02/17 11:03:32;;;;;;;16.23;3.45;;;;;;;;;;5006751;28;20052;-80
2024/02/17 11:06:01;;;;;;;14.48;3.60;;;;;;;;;;5000296;28;20050;-78
2024/02/17 11:08:28;;;;;;;14.55;3.40;;;;;;;;;;5007493;28;20122;-77
2024/02/17 11:10:54;;;;;;;12.48;3.28;;;;;;;;;;5001217;28;20037;-78
2024/02/17 11:13:24;;;;;;;14.00;3.65;;;;;;;;;;5001558;28;20091;-78
2024/02/17 11:16:04;;;;;;;13.50;3.38;;;;;;;;;;5005481;28;20022;-79
2024/02/17 11:18:36;;;;;;;15.05;3.42;;;;;;;;;;5001288;28;20124;-79
2024/02/17 11:21:05;;;;;;;10.80;3.15;;;;;;;;;;5001813;28;20047;-79
2024/02/17 11:23:33;;;;;;;13.35;3.20;;;;;;;;;;5006430;28;20748;-77
2024/02/17 11:25:59;;;;;;;14.32;3.88;;;;;;;;;;5003039;28;20064;-80
2024/02/17 11:28:26;;;;;;;14.68;3.60;;;;;;;;;;5004360;28;20931;-80
2024/02/17 11:30:59;;;;;;;16.40;3.47;;;;;;;;;;5003307;28;20091;-80
2024/02/17 11:33:30;;;;;;;15.93;3.08;;;;;;;;;;5005109;28;20039;-80
2024/02/17 11:35:56;;;;;;;12.65;3.30;;;;;;;;;;5001126;28;20039;-81
2024/02/17 11:38:25;;;;;;;12.65;3.78;;;;;;;;;;5002306;28;20481;-80
2024/02/17 11:40:56;;;;;;;14.55;3.60;;;;;;;;;;5013977;28;20080;-80
2024/02/17 11:43:22;;;;;;;12.98;3.25;;;;;;;;;;5004828;28;20127;-80
2024/02/17 11:45:48;;;;;;;11.18;3.00;;;;;;;;;;5005318;28;20033;-79
2024/02/17 11:48:15;;;;;;;13.40;2.92;;;;;;;;;;5007228;28;20112;-80
2024/02/17 11:50:41;;;;;;;12.77;3.50;;;;;;;;;;5003510;28;20080;-79
2024/02/17 11:53:08;;;;;;;15.43;3.63;;;;;;;;;;5012104;28;20029;-79
2024/02/17 11:55:35;;;;;;;12.82;3.15;;;;;;;;;;5010803;28;20055;-79
2024/02/17 11:58:05;;;;;;;10.82;2.67;;;;;;;;;;5019950;28;20025;-79
2024/02/17 12:00:37;;;;;;;13.55;3.58;;;;;;;;;;5009291;28;20056;-79
2024/02/17 12:03:05;;;;;;;14.95;3.08;;;;;;;;;;5011146;28;20036;-79
2024/02/17 12:05:31;;;;;;;11.52;3.15;;;;;;;;;;5018041;28;20689;-79
2024/02/17 12:07:57;;;;;;;13.60;3.40;;;;;;;;;;5011111;28;20097;-78
2024/02/17 12:10:24;;;;;;;13.93;3.70;;;;;;;;;;5017631;28;20078;-77
2024/02/17 12:12:51;;;;;;;12.73;2.92;;;;;;;;;;5010784;28;20036;-79
2024/02/17 12:15:17;;;;;;;13.65;3.70;;;;;;;;;;5001930;28;20040;-77
2024/02/17 12:17:44;;;;;;;11.75;3.28;;;;;;;;;;5008242;28;20041;-78
2024/02/17 12:20:11;;;;;;;13.60;3.15;;;;;;;;;;5009509;28;20032;-79
2024/02/17 12:22:38;;;;;;;13.27;2.88;;;;;;;;;;5023751;28;20025;-80
2024/02/17 12:25:06;;;;;;;14.13;3.30;;;;;;;;;;5011463;28;20033;-78
2024/02/17 12:27:33;;;;;;;10.75;2.85;;;;;;;;;;5023739;28;20511;-78
2024/02/17 12:29:59;;;;;;;14.23;3.50;;;;;;;;;;5023377;28;20107;-78
2024/02/17 12:32:27;;;;;;;12.65;3.72;;;;;;;;;;5029925;28;20130;-78
2024/02/17 12:34:53;;;;;;;12.98;3.45;;;;;;;;;;5027059;28;20036;-78
2024/02/17 12:37:20;;;;;;;12.75;3.53;;;;;;;;;;5020976;28;20060;-78
2024/02/17 12:39:46;;;;;;;15.70;3.35;;;;;;;;;;5027390;28;20108;-79
2024/02/17 12:42:13;;;;;;;13.15;3.33;;;;;;;;;;4996392;28;20052;-79
2024/02/17 12:44:40;;;;;;;11.95;2.92;;;;;;;;;;5011949;28;20497;-79
2024/02/17 12:47:33;;;;;;;10.70;3.05;;;;;;;;;;5022097;28;20021;-78
2024/02/17 12:50:03;;;;;;;14.40;3.45;;;;;;;;;;5025300;28;20029;-78
2024/02/17 12:52:29;;;;;;;11.60;2.90;;;;;;;;;;5011879;28;20120;-79
2024/02/17 12:54:55;;;;;;;11.95;3.30;;;;;;;;;;5022788;28;20481;-79
2024/02/17 12:57:21;;;;;;;11.75;3.53;;;;;;;;;;5023709;28;20126;-79
2024/02/17 12:59:50;;;;;;;12.43;2.95;;;;;;;;;;5023155;28;20025;-80
2024/02/17 13:02:17;;;;;;;12.98;3.53;;;;;;;;;;5024874;28;20388;-79
2024/02/17 13:04:43;;;;;;;15.02;3.90;;;;;;;;;;5011444;28;20032;-80
2024/02/17 13:07:10;;;;;;;16.88;3.33;;;;;;;;;;5028910;28;20036;-80
2024/02/17 13:09:37;;;;;;;12.65;3.40;;;;;;;;;;5015104;28;20033;-79
2024/02/17 13:12:03;;;;;;;15.32;4.25;;;;;;;;;;5033734;28;20112;-89
2024/02/17 13:14:29;;;;;;;13.23;3.50;;;;;;;;;;5016713;28;20037;-81
2024/02/17 13:16:55;;;;;;;15.65;3.83;;;;;;;;;;5014244;28;20029;-81
2024/02/17 13:19:21;;;;;;;12.27;3.63;;;;;;;;;;5019376;28;20041;-79
2024/02/17 13:21:47;;;;;;;14.23;3.90;;;;;;;;;;5013651;28;20040;-81
2024/02/17 13:24:13;;;;;;;15.73;3.45;;;;;;;;;;5029125;28;20052;-81
2024/02/17 13:26:40;;;;;;;12.80;2.97;;;;;;;;;;5029273;28;20060;-81
2024/02/17 13:29:07;;;;;;;11.93;3.10;;;;;;;;;;5015585;28;20033;-80
2024/02/17 13:31:35;;;;;;;12.75;3.75;;;;;;;;;;5029220;28;20078;-81
2024/02/17 13:34:01;;;;;;;13.75;3.65;;;;;;;;;;5016537;28;20029;-81
2024/02/17 13:36:27;;;;;;;13.18;4.03;;;;;;;;;;5025667;28;20482;-80
2024/02/17 13:38:53;;;;;;;14.20;3.55;;;;;;;;;;5014678;28;20033;-80
2024/02/17 13:41:20;;;;;;;17.92;4.30;;;;;;;;;;5009542;28;20100;-80
2024/02/17 13:43:46;;;;;;;15.98;3.88;;;;;;;;;;5008451;28;20030;-81
2024/02/17 13:46:12;;;;;;;13.70;3.90;;;;;;;;;;5006386;28;20018;-79
2024/02/17 13:48:38;;;;;;;14.15;4.15;;;;;;;;;;5002999;28;20090;-79
2024/02/17 13:51:04;;;;;;;14.60;3.70;;;;;;;;;;5007926;28;20029;-78
2024/02/17 13:53:31;;;;;;;14.82;4.32;;;;;;;;;;5009719;28;20041;-79
2024/02/17 13:55:58;;;;;;;15.43;3.95;;;;;;;;;;5004448;28;20029;-79
2024/02/17 13:58:24;;;;;;;14.18;3.72;;;;;;;;;;5007470;28;20038;-79
2024/02/17 14:00:50;;;;;;;12.68;3.92;;;;;;;;;;5007027;28;20038;-78
2024/02/17 14:03:17;;;;;;;11.63;3.22;;;;;;;;;;5011877;28;20812;-78
2024/02/17 14:05:45;;;;;;;14.27;3.53;;;;;;;;;;4999170;28;20648;-78
2024/02/17 14:08:11;;;;;;;11.82;3.17;;;;;;;;;;5009958;28;20018;-78
2024/02/17 14:10:37;;;;;;;12.73;3.35;;;;;;;;;;5005614;28;20553;-80
2024/02/17 14:13:04;;;;;;;11.48;3.30;;;;;;;;;;5005273;28;20064;-79
2024/02/17 14:15:31;;;;;;;12.88;3.08;;;;;;;;;;5010171;28;20466;-79
2024/02/17 14:17:57;;;;;;;12.73;3.00;;;;;;;;;;5004269;28;20022;-80
2024/02/17 14:20:24;;;;;;;12.98;3.30;;;;;;;;;;5009100;28;20030;-79
2024/02/17 14:22:51;;;;;;;10.25;3.00;;;;;;;;;;5007472;28;20034;-79
2024/02/17 14:25:19;;;;;;;14.68;2.78;;;;;;;;;;4993446;28;20107;-77
2024/02/17 14:27:45;;;;;;;15.05;3.30;;;;;;;;;;5004579;28;20886;-78
2024/02/17 14:30:12;;;;;;;14.02;3.50;;;;;;;;;;5006789;28;20025;-78
2024/02/17 14:32:38;;;;;;;12.85;3.60;;;;;;;;;;5008312;28;20454;-78
2024/02/17 14:35:05;;;;;;;12.90;3.28;;;;;;;;;;5004831;28;20105;-78
2024/02/17 14:37:32;;;;;;;12.85;3.08;;;;;;;;;;5003519;28;20036;-78
2024/02/17 14:39:58;;;;;;;14.77;2.70;;;;;;;;;;4990785;28;20038;-79
2024/02/17 14:42:24;;;;;;;13.65;3.00;;;;;;;;;;5006949;28;20844;-78
2024/02/17 14:44:50;;;;;;;10.85;2.85;;;;;;;;;;5000120;28;20474;-78
2024/02/17 14:47:16;;;;;;;12.15;3.00;;;;;;;;;;5008915;28;20033;-78